Terminal Aerodrome Forecast
Issued by NWS Wilmington, OH

Home | Current Version | Previous Version | Text Only | Print | Product List | Glossary On
Versions: 1 2 3 4 5 6 7 8 9 10 11 12 13 14 15
000
FTUS41 KILN 032300
TAFDAY
TAF
KDAY 032337Z 0400/0424 02007KT P6SM VCSH SCT015 BKN040
     FM040600 33003KT P6SM SCT015 BKN100
      TEMPO 0408/0412 5SM BR
     FM041300 35005KT P6SM SKC
     FM041800 32006KT P6SM SCT050=

USA.gov is the U.S. government's official web portal to all federal, state and local government web resources and services.